Time,TemperatureF,DewpointF,PressureIn,WindDirection,WindDirectionDegrees,WindSpeedMPH,WindSpeedGustMPH,Humidity,HourlyPrecipIn,Conditions,Clouds,dailyrainin,SoftwareType,DateUTC
2013-01-24 00:23:00,12.0,4.0,30.10,NNW,340,0.0,0.0,71,0.00,,,0.00,,2013-01-24 05:23:00,
2013-01-24 00:33:00,12.0,4.0,30.10,NNW,340,0.0,0.0,71,0.00,,,0.00,,2013-01-24 05:33:00,
2013-01-24 00:43:00,12.0,4.0,30.10,NNW,340,0.0,0.0,71,0.00,,,0.00,,2013-01-24 05:43:00,
2013-01-24 00:53:00,12.0,4.0,30.10,NNW,340,0.0,0.0,71,0.00,,,0.00,,2013-01-24 05:53:00,
2013-01-24 01:22:00,12.0,6.0,30.07,NNW,340,0.0,0.0,76,0.00,,,0.00,,2013-01-24 06:22:00,
2013-01-24 01:32:00,12.0,6.0,30.07,NNW,340,0.0,0.0,76,0.00,,,0.00,,2013-01-24 06:32:00,
2013-01-24 01:42:00,12.0,6.0,30.07,NNW,340,0.0,0.0,76,0.00,,,0.00,,2013-01-24 06:42:00,
2013-01-24 01:52:00,12.0,6.0,30.07,NNW,340,0.0,0.0,76,0.00,,,0.00,,2013-01-24 06:52:00,
2013-01-24 02:23:00,12.0,6.0,30.06,NNW,340,0.0,0.0,78,0.00,,,0.00,,2013-01-24 07:23:00,
2013-01-24 02:33:00,12.0,6.0,30.06,NNW,340,0.0,0.0,78,0.00,,,0.00,,2013-01-24 07:33:00,
2013-01-24 02:43:00,12.0,6.0,30.06,NNW,340,0.0,0.0,78,0.00,,,0.00,,2013-01-24 07:43:00,
2013-01-24 02:52:00,12.0,6.0,30.06,NNW,340,0.0,0.0,78,0.00,,,0.00,,2013-01-24 07:52:00,
2013-01-24 03:23:00,12.0,6.0,30.06,NNW,340,0.0,0.0,76,0.00,,,0.00,,2013-01-24 08:23:00,
2013-01-24 03:33:00,12.0,6.0,30.06,NNW,340,0.0,0.0,76,0.00,,,0.00,,2013-01-24 08:33:00,
2013-01-24 03:43:00,12.0,6.0,30.06,NNW,340,0.0,0.0,76,0.00,,,0.00,,2013-01-24 08:43:00,
2013-01-24 03:52:00,12.0,6.0,30.06,NNW,340,0.0,0.0,76,0.00,,,0.00,,2013-01-24 08:52:00,
2013-01-24 05:00:00,13.0,5.0,30.07,West,279,0.0,3.0,70,0.00,,,0.00,,2013-01-24 10:00:00,
2013-01-24 05:23:00,13.0,5.0,30.07,West,279,0.0,3.0,70,0.00,,,0.00,,2013-01-24 10:23:00,
2013-01-24 05:34:00,13.0,5.0,30.07,West,279,0.0,3.0,70,0.00,,,0.00,,2013-01-24 10:34:00,
2013-01-24 05:43:00,13.0,5.0,30.07,West,279,0.0,3.0,70,0.00,,,0.00,,2013-01-24 10:43:00,
2013-01-24 05:53:00,13.0,5.0,30.07,West,279,0.0,3.0,70,0.00,,,0.00,,2013-01-24 10:53:00,
2013-01-24 06:00:00,13.0,4.0,30.10,West,279,0.0,3.0,68,0.00,,,0.00,,2013-01-24 11:00:00,
2013-01-24 06:23:00,13.0,4.0,30.10,West,279,0.0,3.0,68,0.00,,,0.00,,2013-01-24 11:23:00,
2013-01-24 06:33:00,13.0,4.0,30.10,West,279,0.0,3.0,68,0.00,,,0.00,,2013-01-24 11:33:00,
2013-01-24 06:43:00,13.0,4.0,30.10,West,279,0.0,3.0,68,0.00,,,0.00,,2013-01-24 11:43:00,
2013-01-24 06:53:00,13.0,4.0,30.10,West,279,0.0,3.0,68,0.00,,,0.00,,2013-01-24 11:53:00,
2013-01-24 07:00:00,13.0,5.0,30.12,WNW,295,0.0,2.0,70,0.00,,,0.00,,2013-01-24 12:00:00,
2013-01-24 07:23:00,13.0,5.0,30.12,WNW,295,0.0,2.0,70,0.00,,,0.00,,2013-01-24 12:23:00,
2013-01-24 07:33:00,13.0,5.0,30.12,WNW,295,0.0,2.0,70,0.00,,,0.00,,2013-01-24 12:33:00,
2013-01-24 07:43:00,13.0,5.0,30.12,WNW,295,0.0,2.0,70,0.00,,,0.00,,2013-01-24 12:43:00,
2013-01-24 07:53:00,13.0,5.0,30.12,WNW,295,0.0,2.0,70,0.00,,,0.00,,2013-01-24 12:53:00,
2013-01-24 08:00:00,12.0,4.0,30.15,WNW,283,0.0,2.0,70,0.00,,,0.00,,2013-01-24 13:00:00,
2013-01-24 08:23:00,12.0,4.0,30.15,WNW,283,0.0,2.0,70,0.00,,,0.00,,2013-01-24 13:23:00,
2013-01-24 08:33:00,12.0,4.0,30.15,WNW,283,0.0,2.0,70,0.00,,,0.00,,2013-01-24 13:33:00,
2013-01-24 08:43:00,12.0,4.0,30.15,WNW,283,0.0,2.0,70,0.00,,,0.00,,2013-01-24 13:43:00,
2013-01-24 08:53:00,12.0,4.0,30.15,WNW,283,0.0,2.0,70,0.00,,,0.00,,2013-01-24 13:53:00,
2013-01-24 09:00:00,14.0,6.0,30.17,NNE,13,2.0,9.0,69,0.00,,,0.00,,2013-01-24 14:00:00,
2013-01-24 09:23:00,14.0,6.0,30.17,NNE,13,2.0,9.0,69,0.00,,,0.00,,2013-01-24 14:23:00,
2013-01-24 09:33:00,14.0,6.0,30.17,NNE,13,2.0,9.0,69,0.00,,,0.00,,2013-01-24 14:33:00,
2013-01-24 09:43:00,14.0,6.0,30.17,NNE,13,2.0,9.0,69,0.00,,,0.00,,2013-01-24 14:43:00,
2013-01-24 09:54:00,14.0,6.0,30.17,NNE,13,2.0,9.0,69,0.00,,,0.00,,2013-01-24 14:54:00,
2013-01-24 10:23:00,16.0,6.0,30.21,NNW,327,3.0,12.0,65,0.00,,,0.00,,2013-01-24 15:23:00,
2013-01-24 10:33:00,16.0,6.0,30.21,NNW,327,3.0,12.0,65,0.00,,,0.00,,2013-01-24 15:33:00,
2013-01-24 10:43:00,16.0,6.0,30.21,NNW,327,3.0,12.0,65,0.00,,,0.00,,2013-01-24 15:43:00,
2013-01-24 10:53:00,16.0,6.0,30.21,NNW,327,3.0,12.0,65,0.00,,,0.00,,2013-01-24 15:53:00,
2013-01-24 11:00:00,17.0,7.0,30.22,NNW,332,2.0,12.0,65,0.00,,,0.00,,2013-01-24 16:00:00,
2013-01-24 11:23:00,17.0,7.0,30.22,NNW,332,2.0,12.0,65,0.00,,,0.00,,2013-01-24 16:23:00,
2013-01-24 11:33:00,17.0,7.0,30.22,NNW,332,2.0,12.0,65,0.00,,,0.00,,2013-01-24 16:33:00,
2013-01-24 11:43:00,17.0,7.0,30.22,NNW,332,2.0,12.0,65,0.00,,,0.00,,2013-01-24 16:43:00,
2013-01-24 13:13:00,20.0,7.0,30.24,WNW,296,5.0,17.0,56,0.00,,,0.00,,2013-01-24 18:13:00,
2013-01-24 13:23:00,20.0,7.0,30.24,WNW,296,5.0,17.0,56,0.00,,,0.00,,2013-01-24 18:23:00,
2013-01-24 13:33:00,20.0,7.0,30.24,WNW,296,5.0,17.0,56,0.00,,,0.00,,2013-01-24 18:33:00,
2013-01-24 13:42:00,20.0,7.0,30.24,WNW,296,5.0,17.0,56,0.00,,,0.00,,2013-01-24 18:42:00,
2013-01-24 13:53:00,20.0,7.0,30.24,WNW,296,5.0,17.0,56,0.00,,,0.00,,2013-01-24 18:53:00,
2013-01-24 14:22:00,20.0,3.0,30.25,WNW,293,5.0,20.0,47,0.00,,,0.00,,2013-01-24 19:22:00,
2013-01-24 14:33:00,20.0,3.0,30.25,WNW,293,5.0,20.0,47,0.00,,,0.00,,2013-01-24 19:33:00,
2013-01-24 14:42:00,20.0,3.0,30.25,WNW,293,5.0,20.0,47,0.00,,,0.00,,2013-01-24 19:42:00,
2013-01-24 14:52:00,20.0,3.0,30.25,WNW,293,5.0,20.0,47,0.00,,,0.00,,2013-01-24 19:52:00,
2013-01-24 16:23:00,21.0,3.0,30.30,WNW,290,10.0,15.0,45,0.00,,,0.00,,2013-01-24 21:23:00,
2013-01-24 16:33:00,21.0,3.0,30.30,WNW,290,10.0,15.0,45,0.00,,,0.00,,2013-01-24 21:33:00,
2013-01-24 16:43:00,21.0,3.0,30.30,WNW,290,10.0,15.0,45,0.00,,,0.00,,2013-01-24 21:43:00,
2013-01-24 16:52:00,21.0,3.0,30.30,WNW,290,10.0,15.0,45,0.00,,,0.00,,2013-01-24 21:52:00,
2013-01-24 17:00:00,20.0,3.0,30.32,North,351,5.0,12.0,47,0.00,,,0.00,,2013-01-24 22:00:00,
2013-01-24 17:23:00,20.0,3.0,30.32,North,351,5.0,12.0,47,0.00,,,0.00,,2013-01-24 22:23:00,
2013-01-24 17:33:00,20.0,3.0,30.32,North,351,5.0,12.0,47,0.00,,,0.00,,2013-01-24 22:33:00,
2013-01-24 17:42:00,20.0,3.0,30.32,North,351,5.0,12.0,47,0.00,,,0.00,,2013-01-24 22:42:00,
2013-01-24 17:53:00,20.0,3.0,30.32,North,351,5.0,12.0,47,0.00,,,0.00,,2013-01-24 22:53:00,
2013-01-24 18:00:00,19.0,3.0,30.35,WNW,285,4.0,6.0,48,0.00,,,0.00,,2013-01-24 23:00:00,
2013-01-24 18:22:00,19.0,3.0,30.35,WNW,285,4.0,6.0,48,0.00,,,0.00,,2013-01-24 23:22:00,
2013-01-24 18:32:00,19.0,3.0,30.35,WNW,285,4.0,6.0,48,0.00,,,0.00,,2013-01-24 23:32:00,
2013-01-24 18:42:00,19.0,3.0,30.35,WNW,285,4.0,6.0,48,0.00,,,0.00,,2013-01-24 23:42:00,
2013-01-24 18:52:00,19.0,3.0,30.35,WNW,285,4.0,6.0,48,0.00,,,0.00,,2013-01-24 23:52:00,
2013-01-24 19:00:00,18.0,2.0,30.37,West,280,0.0,5.0,48,0.00,,,0.00,,2013-01-25 00:00:00,
2013-01-24 19:22:00,18.0,2.0,30.37,West,280,0.0,5.0,48,0.00,,,0.00,,2013-01-25 00:22:00,
2013-01-24 19:32:00,18.0,2.0,30.37,West,280,0.0,5.0,48,0.00,,,0.00,,2013-01-25 00:32:00,
2013-01-24 19:42:00,18.0,2.0,30.37,West,280,0.0,5.0,48,0.00,,,0.00,,2013-01-25 00:42:00,
2013-01-24 19:53:00,18.0,2.0,30.37,West,280,0.0,5.0,48,0.00,,,0.00,,2013-01-25 00:53:00,
2013-01-24 20:00:00,18.0,3.0,30.39,WNW,291,0.0,5.0,50,0.00,,,0.00,,2013-01-25 01:00:00,
2013-01-24 20:22:00,18.0,3.0,30.39,WNW,291,0.0,5.0,50,0.00,,,0.00,,2013-01-25 01:22:00,
2013-01-24 20:32:00,18.0,3.0,30.39,WNW,291,0.0,5.0,50,0.00,,,0.00,,2013-01-25 01:32:00,
2013-01-24 20:43:00,18.0,3.0,30.39,WNW,291,0.0,5.0,50,0.00,,,0.00,,2013-01-25 01:43:00,
2013-01-24 20:52:00,18.0,3.0,30.39,WNW,291,0.0,5.0,50,0.00,,,0.00,,2013-01-25 01:52:00,
2013-01-24 21:01:00,17.0,3.0,30.38,WNW,286,0.0,4.0,53,0.00,,,0.00,,2013-01-25 02:01:00,
2013-01-24 21:22:00,17.0,3.0,30.38,WNW,286,0.0,4.0,53,0.00,,,0.00,,2013-01-25 02:22:00,
2013-01-24 21:33:00,17.0,3.0,30.38,WNW,286,0.0,4.0,53,0.00,,,0.00,,2013-01-25 02:33:00,
2013-01-24 21:43:00,17.0,3.0,30.38,WNW,286,0.0,4.0,53,0.00,,,0.00,,2013-01-25 02:43:00,
2013-01-24 21:53:00,17.0,3.0,30.38,WNW,286,0.0,4.0,53,0.00,,,0.00,,2013-01-25 02:53:00,
2013-01-24 22:00:00,16.0,3.0,30.39,West,277,1.0,4.0,56,0.00,,,0.00,,2013-01-25 03:00:00,
2013-01-24 22:12:00,16.0,3.0,30.39,West,277,1.0,4.0,56,0.00,,,0.00,,2013-01-25 03:12:00,
2013-01-24 22:22:00,16.0,3.0,30.39,West,277,1.0,4.0,56,0.00,,,0.00,,2013-01-25 03:22:00,
2013-01-24 22:33:00,16.0,3.0,30.39,West,277,1.0,4.0,56,0.00,,,0.00,,2013-01-25 03:33:00,
2013-01-24 22:42:00,16.0,3.0,30.39,West,277,1.0,4.0,56,0.00,,,0.00,,2013-01-25 03:42:00,
2013-01-24 22:53:00,16.0,3.0,30.39,West,277,1.0,4.0,56,0.00,,,0.00,,2013-01-25 03:53:00,
2013-01-24 23:12:00,15.0,3.0,30.39,West,269,1.0,4.0,58,0.00,,,0.00,,2013-01-25 04:12:00,
2013-01-24 23:22:00,15.0,3.0,30.39,West,269,1.0,4.0,58,0.00,,,0.00,,2013-01-25 04:22:00,
2013-01-24 23:32:00,15.0,3.0,30.39,West,269,1.0,4.0,58,0.00,,,0.00,,2013-01-25 04:32:00,
2013-01-24 23:42:00,15.0,3.0,30.39,West,269,1.0,4.0,58,0.00,,,0.00,,2013-01-25 04:42:00,
2013-01-24 23:51:00,15.0,3.0,30.39,West,269,1.0,4.0,58,0.00,,,0.00,,2013-01-25 04:51:00,